sensor_id;sensor_type;location;lat;lon;timestamp;temperature;humidity
23156;DHT22;11746;50.876;4.246;2022-07-19T00:00:19;25.90;64.60
23156;DHT22;11746;50.876;4.246;2022-07-19T00:02:48;25.90;64.80
23156;DHT22;11746;50.876;4.246;2022-07-19T00:05:16;25.90;64.60
23156;DHT22;11746;50.876;4.246;2022-07-19T00:07:48;25.90;65.00
23156;DHT22;11746;50.876;4.246;2022-07-19T00:10:16;25.80;64.50
23156;DHT22;11746;50.876;4.246;2022-07-19T00:12:43;25.70;64.30
23156;DHT22;11746;50.876;4.246;2022-07-19T00:15:13;25.70;65.00
23156;DHT22;11746;50.876;4.246;2022-07-19T00:17:41;25.70;64.40
23156;DHT22;11746;50.876;4.246;2022-07-19T00:20:09;25.60;64.90
23156;DHT22;11746;50.876;4.246;2022-07-19T00:22:35;25.50;65.00
23156;DHT22;11746;50.876;4.246;2022-07-19T00:25:01;25.50;65.60
23156;DHT22;11746;50.876;4.246;2022-07-19T00:27:26;25.50;65.50
23156;DHT22;11746;50.876;4.246;2022-07-19T00:29:52;25.50;65.10
23156;DHT22;11746;50.876;4.246;2022-07-19T00:32:17;25.50;64.60
23156;DHT22;11746;50.876;4.246;2022-07-19T00:34:44;25.60;64.60
23156;DHT22;11746;50.876;4.246;2022-07-19T00:37:10;25.70;64.90
23156;DHT22;11746;50.876;4.246;2022-07-19T00:39:38;25.60;64.40
23156;DHT22;11746;50.876;4.246;2022-07-19T00:42:04;25.60;64.30
23156;DHT22;11746;50.876;4.246;2022-07-19T00:44:30;25.50;64.20
23156;DHT22;11746;50.876;4.246;2022-07-19T00:46:56;25.50;64.70
23156;DHT22;11746;50.876;4.246;2022-07-19T00:49:22;25.40;65.00
23156;DHT22;11746;50.876;4.246;2022-07-19T00:51:51;25.40;65.40
23156;DHT22;11746;50.876;4.246;2022-07-19T00:54:20;25.40;65.60
23156;DHT22;11746;50.876;4.246;2022-07-19T00:56:48;25.50;65.30
23156;DHT22;11746;50.876;4.246;2022-07-19T00:59:14;25.50;63.20
23156;DHT22;11746;50.876;4.246;2022-07-19T01:01:40;25.60;63.00
23156;DHT22;11746;50.876;4.246;2022-07-19T01:04:07;25.60;63.20
23156;DHT22;11746;50.876;4.246;2022-07-19T01:06:33;25.60;62.70
23156;DHT22;11746;50.876;4.246;2022-07-19T01:08:59;25.70;62.80
23156;DHT22;11746;50.876;4.246;2022-07-19T01:11:28;25.60;62.70
23156;DHT22;11746;50.876;4.246;2022-07-19T01:13:56;25.60;63.60
23156;DHT22;11746;50.876;4.246;2022-07-19T01:16:22;25.70;64.30
23156;DHT22;11746;50.876;4.246;2022-07-19T01:18:48;25.70;64.00
23156;DHT22;11746;50.876;4.246;2022-07-19T01:21:23;25.70;64.00
23156;DHT22;11746;50.876;4.246;2022-07-19T01:23:50;25.50;64.10
23156;DHT22;11746;50.876;4.246;2022-07-19T01:26:16;25.40;64.30
23156;DHT22;11746;50.876;4.246;2022-07-19T01:28:43;25.40;65.00
23156;DHT22;11746;50.876;4.246;2022-07-19T01:31:10;25.40;64.10
23156;DHT22;11746;50.876;4.246;2022-07-19T01:33:40;25.40;64.00
23156;DHT22;11746;50.876;4.246;2022-07-19T01:36:08;25.40;64.00
23156;DHT22;11746;50.876;4.246;2022-07-19T01:38:38;25.30;64.50
23156;DHT22;11746;50.876;4.246;2022-07-19T01:41:07;25.30;63.50
23156;DHT22;11746;50.876;4.246;2022-07-19T01:43:33;25.20;63.50
23156;DHT22;11746;50.876;4.246;2022-07-19T01:46:03;25.10;63.60
23156;DHT22;11746;50.876;4.246;2022-07-19T01:48:31;25.10;64.30
23156;DHT22;11746;50.876;4.246;2022-07-19T01:50:59;25.10;64.80
23156;DHT22;11746;50.876;4.246;2022-07-19T01:53:25;25.10;64.70
23156;DHT22;11746;50.876;4.246;2022-07-19T01:55:53;25.00;65.40
23156;DHT22;11746;50.876;4.246;2022-07-19T01:58:19;25.00;64.80
23156;DHT22;11746;50.876;4.246;2022-07-19T02:00:45;25.00;64.60
23156;DHT22;11746;50.876;4.246;2022-07-19T02:03:13;25.00;64.50
23156;DHT22;11746;50.876;4.246;2022-07-19T02:05:39;25.00;64.00
23156;DHT22;11746;50.876;4.246;2022-07-19T02:08:05;25.00;63.30
23156;DHT22;11746;50.876;4.246;2022-07-19T02:10:31;24.90;63.50
23156;DHT22;11746;50.876;4.246;2022-07-19T02:12:57;25.00;63.70
23156;DHT22;11746;50.876;4.246;2022-07-19T02:15:26;25.00;64.80
23156;DHT22;11746;50.876;4.246;2022-07-19T02:17:52;25.00;64.90
23156;DHT22;11746;50.876;4.246;2022-07-19T02:20:18;25.00;65.20
23156;DHT22;11746;50.876;4.246;2022-07-19T02:22:47;25.00;64.90
23156;DHT22;11746;50.876;4.246;2022-07-19T02:25:16;24.90;63.90
23156;DHT22;11746;50.876;4.246;2022-07-19T02:27:45;24.90;64.10
23156;DHT22;11746;50.876;4.246;2022-07-19T02:30:13;24.90;65.00
23156;DHT22;11746;50.876;4.246;2022-07-19T02:32:39;24.90;63.90
23156;DHT22;11746;50.876;4.246;2022-07-19T02:35:07;24.90;63.60
23156;DHT22;11746;50.876;4.246;2022-07-19T02:37:33;25.00;63.70
23156;DHT22;11746;50.876;4.246;2022-07-19T02:40:04;24.90;63.30
23156;DHT22;11746;50.876;4.246;2022-07-19T02:42:30;24.90;62.90
23156;DHT22;11746;50.876;4.246;2022-07-19T02:45:01;25.00;61.90
23156;DHT22;11746;50.876;4.246;2022-07-19T02:47:29;25.00;63.40
23156;DHT22;11746;50.876;4.246;2022-07-19T02:49:58;25.00;63.10
23156;DHT22;11746;50.876;4.246;2022-07-19T02:52:28;25.10;63.70
23156;DHT22;11746;50.876;4.246;2022-07-19T02:54:59;25.00;64.60
23156;DHT22;11746;50.876;4.246;2022-07-19T02:57:25;25.00;63.60
23156;DHT22;11746;50.876;4.246;2022-07-19T02:59:51;25.00;65.50
23156;DHT22;11746;50.876;4.246;2022-07-19T03:02:18;25.10;65.00
23156;DHT22;11746;50.876;4.246;2022-07-19T03:04:47;25.10;63.40
23156;DHT22;11746;50.876;4.246;2022-07-19T03:07:13;25.00;63.90
23156;DHT22;11746;50.876;4.246;2022-07-19T03:09:40;25.10;63.40
23156;DHT22;11746;50.876;4.246;2022-07-19T03:12:08;25.00;64.00
23156;DHT22;11746;50.876;4.246;2022-07-19T03:14:34;25.00;64.30
23156;DHT22;11746;50.876;4.246;2022-07-19T03:17:00;24.90;63.80
23156;DHT22;11746;50.876;4.246;2022-07-19T03:19:28;24.80;64.40
23156;DHT22;11746;50.876;4.246;2022-07-19T03:21:56;24.80;65.10
23156;DHT22;11746;50.876;4.246;2022-07-19T03:24:22;24.70;65.90
23156;DHT22;11746;50.876;4.246;2022-07-19T03:26:48;24.80;66.30
23156;DHT22;11746;50.876;4.246;2022-07-19T03:29:17;24.80;65.40
23156;DHT22;11746;50.876;4.246;2022-07-19T03:31:44;24.70;65.00
23156;DHT22;11746;50.876;4.246;2022-07-19T03:34:13;24.60;65.90
23156;DHT22;11746;50.876;4.246;2022-07-19T03:36:41;24.70;66.40
23156;DHT22;11746;50.876;4.246;2022-07-19T03:39:07;24.60;65.60
23156;DHT22;11746;50.876;4.246;2022-07-19T03:41:33;24.50;66.10
23156;DHT22;11746;50.876;4.246;2022-07-19T03:43:59;24.50;66.20
23156;DHT22;11746;50.876;4.246;2022-07-19T03:46:25;24.50;66.70
23156;DHT22;11746;50.876;4.246;2022-07-19T03:48:54;24.40;66.90
23156;DHT22;11746;50.876;4.246;2022-07-19T03:51:19;24.40;66.90
23156;DHT22;11746;50.876;4.246;2022-07-19T03:53:45;24.40;67.00
23156;DHT22;11746;50.876;4.246;2022-07-19T03:56:16;24.40;66.90
23156;DHT22;11746;50.876;4.246;2022-07-19T03:58:43;24.30;67.00
23156;DHT22;11746;50.876;4.246;2022-07-19T04:01:12;24.10;67.50
23156;DHT22;11746;50.876;4.246;2022-07-19T04:03:39;24.00;68.20
23156;DHT22;11746;50.876;4.246;2022-07-19T04:06:09;24.00;68.20
23156;DHT22;11746;50.876;4.246;2022-07-19T04:08:35;24.00;68.40
23156;DHT22;11746;50.876;4.246;2022-07-19T04:11:02;24.10;68.70
23156;DHT22;11746;50.876;4.246;2022-07-19T04:13:32;24.10;68.50
23156;DHT22;11746;50.876;4.246;2022-07-19T04:15:57;24.00;68.70
23156;DHT22;11746;50.876;4.246;2022-07-19T04:18:23;24.20;68.70
23156;DHT22;11746;50.876;4.246;2022-07-19T04:20:51;24.10;68.40
23156;DHT22;11746;50.876;4.246;2022-07-19T04:23:19;24.10;68.30
23156;DHT22;11746;50.876;4.246;2022-07-19T04:25:44;24.10;68.60
23156;DHT22;11746;50.876;4.246;2022-07-19T04:28:10;24.10;68.90
23156;DHT22;11746;50.876;4.246;2022-07-19T04:30:36;24.10;68.10
23156;DHT22;11746;50.876;4.246;2022-07-19T04:33:01;24.20;68.30
23156;DHT22;11746;50.876;4.246;2022-07-19T04:35:29;24.20;68.60
23156;DHT22;11746;50.876;4.246;2022-07-19T04:37:55;24.30;68.40
23156;DHT22;11746;50.876;4.246;2022-07-19T04:40:21;24.30;68.60
23156;DHT22;11746;50.876;4.246;2022-07-19T04:42:50;24.30;69.00
23156;DHT22;11746;50.876;4.246;2022-07-19T04:45:16;24.30;69.30
23156;DHT22;11746;50.876;4.246;2022-07-19T04:47:41;24.40;69.40
23156;DHT22;11746;50.876;4.246;2022-07-19T04:50:12;24.40;69.20
23156;DHT22;11746;50.876;4.246;2022-07-19T04:52:40;24.50;68.70
23156;DHT22;11746;50.876;4.246;2022-07-19T04:55:06;24.50;69.20
23156;DHT22;11746;50.876;4.246;2022-07-19T04:57:33;24.60;69.60
23156;DHT22;11746;50.876;4.246;2022-07-19T04:59:59;24.60;69.20
23156;DHT22;11746;50.876;4.246;2022-07-19T05:02:27;24.70;68.70
23156;DHT22;11746;50.876;4.246;2022-07-19T05:04:52;24.80;68.40
23156;DHT22;11746;50.876;4.246;2022-07-19T05:07:18;24.90;68.00
23156;DHT22;11746;50.876;4.246;2022-07-19T05:09:47;24.90;66.60
23156;DHT22;11746;50.876;4.246;2022-07-19T05:12:13;25.00;66.70
23156;DHT22;11746;50.876;4.246;2022-07-19T05:14:40;25.10;66.20
23156;DHT22;11746;50.876;4.246;2022-07-19T05:17:09;25.30;66.20
23156;DHT22;11746;50.876;4.246;2022-07-19T05:19:37;25.40;66.00
23156;DHT22;11746;50.876;4.246;2022-07-19T05:22:03;25.40;66.10
23156;DHT22;11746;50.876;4.246;2022-07-19T05:24:31;25.50;65.40
23156;DHT22;11746;50.876;4.246;2022-07-19T05:26:59;25.50;65.60
23156;DHT22;11746;50.876;4.246;2022-07-19T05:29:25;25.40;65.50
23156;DHT22;11746;50.876;4.246;2022-07-19T05:31:51;25.60;65.60
23156;DHT22;11746;50.876;4.246;2022-07-19T05:34:19;25.70;65.40
23156;DHT22;11746;50.876;4.246;2022-07-19T05:36:47;25.90;65.60
23156;DHT22;11746;50.876;4.246;2022-07-19T05:39:13;26.10;65.30
23156;DHT22;11746;50.876;4.246;2022-07-19T05:41:42;26.20;65.10
23156;DHT22;11746;50.876;4.246;2022-07-19T05:44:09;26.30;64.90
23156;DHT22;11746;50.876;4.246;2022-07-19T05:46:34;26.40;65.60
23156;DHT22;11746;50.876;4.246;2022-07-19T05:49:10;26.60;65.20
23156;DHT22;11746;50.876;4.246;2022-07-19T05:51:36;26.60;64.40
23156;DHT22;11746;50.876;4.246;2022-07-19T05:54:07;26.70;64.70
23156;DHT22;11746;50.876;4.246;2022-07-19T05:56:34;26.80;64.70
23156;DHT22;11746;50.876;4.246;2022-07-19T05:59:02;26.90;64.80
23156;DHT22;11746;50.876;4.246;2022-07-19T06:01:28;26.90;64.10
23156;DHT22;11746;50.876;4.246;2022-07-19T06:03:58;27.00;63.80
23156;DHT22;11746;50.876;4.246;2022-07-19T06:06:29;27.20;63.30
23156;DHT22;11746;50.876;4.246;2022-07-19T06:08:57;27.10;63.00
23156;DHT22;11746;50.876;4.246;2022-07-19T06:11:23;27.20;63.30
23156;DHT22;11746;50.876;4.246;2022-07-19T06:13:49;27.20;63.30
23156;DHT22;11746;50.876;4.246;2022-07-19T06:16:16;27.30;63.60
23156;DHT22;11746;50.876;4.246;2022-07-19T06:18:45;27.40;63.20
23156;DHT22;11746;50.876;4.246;2022-07-19T06:21:15;27.50;62.90
23156;DHT22;11746;50.876;4.246;2022-07-19T06:23:42;27.50;62.70
23156;DHT22;11746;50.876;4.246;2022-07-19T06:26:11;27.60;63.00
23156;DHT22;11746;50.876;4.246;2022-07-19T06:28:38;27.60;61.60
23156;DHT22;11746;50.876;4.246;2022-07-19T06:31:04;27.50;62.30
23156;DHT22;11746;50.876;4.246;2022-07-19T06:33:30;27.50;62.60
23156;DHT22;11746;50.876;4.246;2022-07-19T06:35:55;27.50;62.20
23156;DHT22;11746;50.876;4.246;2022-07-19T06:38:21;27.60;62.60
23156;DHT22;11746;50.876;4.246;2022-07-19T06:40:47;27.70;62.40
23156;DHT22;11746;50.876;4.246;2022-07-19T06:43:13;27.90;61.70
23156;DHT22;11746;50.876;4.246;2022-07-19T06:45:41;27.90;61.50
23156;DHT22;11746;50.876;4.246;2022-07-19T06:48:07;28.10;61.70
23156;DHT22;11746;50.876;4.246;2022-07-19T06:50:33;28.20;61.40
23156;DHT22;11746;50.876;4.246;2022-07-19T06:53:00;28.30;61.50
23156;DHT22;11746;50.876;4.246;2022-07-19T06:55:29;28.40;61.10
23156;DHT22;11746;50.876;4.246;2022-07-19T06:57:55;28.50;60.70
23156;DHT22;11746;50.876;4.246;2022-07-19T07:00:21;28.50;61.00
23156;DHT22;11746;50.876;4.246;2022-07-19T07:02:49;28.70;60.20
23156;DHT22;11746;50.876;4.246;2022-07-19T07:05:20;28.80;60.00
23156;DHT22;11746;50.876;4.246;2022-07-19T07:07:46;28.80;59.60
23156;DHT22;11746;50.876;4.246;2022-07-19T07:10:13;28.80;59.50
23156;DHT22;11746;50.876;4.246;2022-07-19T07:12:41;29.10;59.00
23156;DHT22;11746;50.876;4.246;2022-07-19T07:15:07;29.10;58.60
23156;DHT22;11746;50.876;4.246;2022-07-19T07:17:36;29.30;59.00
23156;DHT22;11746;50.876;4.246;2022-07-19T07:20:08;29.40;58.60
23156;DHT22;11746;50.876;4.246;2022-07-19T07:22:36;29.50;58.70
23156;DHT22;11746;50.876;4.246;2022-07-19T07:25:05;29.40;58.60
23156;DHT22;11746;50.876;4.246;2022-07-19T07:27:32;29.40;58.40
23156;DHT22;11746;50.876;4.246;2022-07-19T07:30:00;29.40;59.10
23156;DHT22;11746;50.876;4.246;2022-07-19T07:32:26;29.50;58.30
23156;DHT22;11746;50.876;4.246;2022-07-19T07:34:52;29.50;57.90
23156;DHT22;11746;50.876;4.246;2022-07-19T07:37:18;29.60;58.40
23156;DHT22;11746;50.876;4.246;2022-07-19T07:39:44;29.50;58.50
23156;DHT22;11746;50.876;4.246;2022-07-19T07:42:10;29.60;58.10
23156;DHT22;11746;50.876;4.246;2022-07-19T07:44:35;29.60;58.60
23156;DHT22;11746;50.876;4.246;2022-07-19T07:47:01;29.60;57.90
23156;DHT22;11746;50.876;4.246;2022-07-19T07:49:27;29.80;57.20
23156;DHT22;11746;50.876;4.246;2022-07-19T07:51:53;30.00;57.50
23156;DHT22;11746;50.876;4.246;2022-07-19T07:54:19;30.10;57.10
23156;DHT22;11746;50.876;4.246;2022-07-19T07:56:45;30.20;56.90
23156;DHT22;11746;50.876;4.246;2022-07-19T07:59:11;30.20;56.60
23156;DHT22;11746;50.876;4.246;2022-07-19T08:01:37;30.20;56.20
23156;DHT22;11746;50.876;4.246;2022-07-19T08:04:05;30.30;56.00
23156;DHT22;11746;50.876;4.246;2022-07-19T08:06:31;30.20;56.80
23156;DHT22;11746;50.876;4.246;2022-07-19T08:08:59;30.40;55.90
23156;DHT22;11746;50.876;4.246;2022-07-19T08:11:25;30.50;56.80
23156;DHT22;11746;50.876;4.246;2022-07-19T08:13:53;30.50;56.00
23156;DHT22;11746;50.876;4.246;2022-07-19T08:16:19;30.60;56.20
23156;DHT22;11746;50.876;4.246;2022-07-19T08:18:45;30.80;56.00
23156;DHT22;11746;50.876;4.246;2022-07-19T08:21:13;30.90;55.10
23156;DHT22;11746;50.876;4.246;2022-07-19T08:23:41;31.10;55.00
23156;DHT22;11746;50.876;4.246;2022-07-19T08:26:10;31.20;54.80
23156;DHT22;11746;50.876;4.246;2022-07-19T08:28:39;31.20;54.70
23156;DHT22;11746;50.876;4.246;2022-07-19T08:31:05;31.30;55.10
23156;DHT22;11746;50.876;4.246;2022-07-19T08:33:31;31.50;54.50
23156;DHT22;11746;50.876;4.246;2022-07-19T08:35:57;31.60;54.90
23156;DHT22;11746;50.876;4.246;2022-07-19T08:38:22;31.70;54.60
23156;DHT22;11746;50.876;4.246;2022-07-19T08:40:50;31.80;54.70
23156;DHT22;11746;50.876;4.246;2022-07-19T08:43:18;31.80;54.20
23156;DHT22;11746;50.876;4.246;2022-07-19T08:45:43;32.00;54.60
23156;DHT22;11746;50.876;4.246;2022-07-19T08:48:09;31.90;53.90
23156;DHT22;11746;50.876;4.246;2022-07-19T08:50:35;32.10;53.80
23156;DHT22;11746;50.876;4.246;2022-07-19T08:53:03;32.20;53.30
23156;DHT22;11746;50.876;4.246;2022-07-19T08:55:30;32.50;53.10
23156;DHT22;11746;50.876;4.246;2022-07-19T08:57:56;32.50;53.20
23156;DHT22;11746;50.876;4.246;2022-07-19T09:00:33;32.60;52.10
23156;DHT22;11746;50.876;4.246;2022-07-19T09:03:02;32.70;52.40
23156;DHT22;11746;50.876;4.246;2022-07-19T09:05:31;32.70;52.90
23156;DHT22;11746;50.876;4.246;2022-07-19T09:08:17;32.90;53.00
23156;DHT22;11746;50.876;4.246;2022-07-19T09:10:46;32.80;52.30
23156;DHT22;11746;50.876;4.246;2022-07-19T09:13:36;33.10;51.80
23156;DHT22;11746;50.876;4.246;2022-07-19T09:16:02;33.10;51.60
23156;DHT22;11746;50.876;4.246;2022-07-19T09:18:30;33.10;50.60
23156;DHT22;11746;50.876;4.246;2022-07-19T09:21:02;33.30;50.40
23156;DHT22;11746;50.876;4.246;2022-07-19T09:23:28;33.50;49.60
23156;DHT22;11746;50.876;4.246;2022-07-19T09:25:56;33.40;49.80
23156;DHT22;11746;50.876;4.246;2022-07-19T09:28:27;33.40;49.50
23156;DHT22;11746;50.876;4.246;2022-07-19T09:30:56;33.60;49.60
23156;DHT22;11746;50.876;4.246;2022-07-19T09:35:56;33.80;49.70
23156;DHT22;11746;50.876;4.246;2022-07-19T09:38:33;34.00;49.30
23156;DHT22;11746;50.876;4.246;2022-07-19T09:41:19;34.00;48.40
23156;DHT22;11746;50.876;4.246;2022-07-19T09:44:00;34.00;47.70
23156;DHT22;11746;50.876;4.246;2022-07-19T09:46:30;34.00;48.30
23156;DHT22;11746;50.876;4.246;2022-07-19T09:49:09;34.00;48.60
23156;DHT22;11746;50.876;4.246;2022-07-19T09:51:38;34.20;48.40
23156;DHT22;11746;50.876;4.246;2022-07-19T09:54:06;34.40;49.00
23156;DHT22;11746;50.876;4.246;2022-07-19T09:56:33;34.50;48.10
23156;DHT22;11746;50.876;4.246;2022-07-19T09:59:00;34.50;47.70
23156;DHT22;11746;50.876;4.246;2022-07-19T10:01:28;34.60;47.30
23156;DHT22;11746;50.876;4.246;2022-07-19T10:04:01;34.60;47.20
23156;DHT22;11746;50.876;4.246;2022-07-19T10:06:27;34.70;47.40
23156;DHT22;11746;50.876;4.246;2022-07-19T10:08:55;34.80;46.80
23156;DHT22;11746;50.876;4.246;2022-07-19T10:11:21;34.80;46.10
23156;DHT22;11746;50.876;4.246;2022-07-19T10:13:50;34.80;45.60
23156;DHT22;11746;50.876;4.246;2022-07-19T10:16:20;34.90;46.30
23156;DHT22;11746;50.876;4.246;2022-07-19T10:19:05;35.20;46.10
23156;DHT22;11746;50.876;4.246;2022-07-19T10:21:31;35.30;45.80
23156;DHT22;11746;50.876;4.246;2022-07-19T10:24:02;35.30;45.60
23156;DHT22;11746;50.876;4.246;2022-07-19T10:26:39;35.30;46.00
23156;DHT22;11746;50.876;4.246;2022-07-19T10:29:07;35.60;45.20
23156;DHT22;11746;50.876;4.246;2022-07-19T10:31:34;35.70;45.30
23156;DHT22;11746;50.876;4.246;2022-07-19T10:34:05;35.80;44.60
23156;DHT22;11746;50.876;4.246;2022-07-19T10:39:26;35.90;45.00
23156;DHT22;11746;50.876;4.246;2022-07-19T10:42:09;36.00;45.10
23156;DHT22;11746;50.876;4.246;2022-07-19T10:50:12;36.10;43.60
23156;DHT22;11746;50.876;4.246;2022-07-19T10:52:44;36.30;45.00
23156;DHT22;11746;50.876;4.246;2022-07-19T10:57:43;36.40;43.50
23156;DHT22;11746;50.876;4.246;2022-07-19T11:00:22;36.40;43.60
23156;DHT22;11746;50.876;4.246;2022-07-19T11:05:56;36.50;42.30
23156;DHT22;11746;50.876;4.246;2022-07-19T11:08:41;36.50;43.00
23156;DHT22;11746;50.876;4.246;2022-07-19T11:11:08;36.80;42.10
23156;DHT22;11746;50.876;4.246;2022-07-19T11:13:34;36.80;41.50
23156;DHT22;11746;50.876;4.246;2022-07-19T11:16:03;36.90;41.50
23156;DHT22;11746;50.876;4.246;2022-07-19T11:18:30;36.80;41.90
23156;DHT22;11746;50.876;4.246;2022-07-19T11:21:00;37.00;42.60
23156;DHT22;11746;50.876;4.246;2022-07-19T11:23:36;37.20;41.90
23156;DHT22;11746;50.876;4.246;2022-07-19T11:26:15;37.20;42.70
23156;DHT22;11746;50.876;4.246;2022-07-19T11:28:43;37.40;41.80
23156;DHT22;11746;50.876;4.246;2022-07-19T11:31:18;37.30;42.30
23156;DHT22;11746;50.876;4.246;2022-07-19T11:33:46;37.20;41.90
23156;DHT22;11746;50.876;4.246;2022-07-19T11:36:15;37.30;42.90
23156;DHT22;11746;50.876;4.246;2022-07-19T11:38:46;37.40;42.40
23156;DHT22;11746;50.876;4.246;2022-07-19T11:43:44;37.90;43.00
23156;DHT22;11746;50.876;4.246;2022-07-19T11:46:16;37.90;42.20
23156;DHT22;11746;50.876;4.246;2022-07-19T11:48:45;37.90;42.10
23156;DHT22;11746;50.876;4.246;2022-07-19T11:51:13;38.00;42.20
23156;DHT22;11746;50.876;4.246;2022-07-19T11:53:40;38.00;42.90
23156;DHT22;11746;50.876;4.246;2022-07-19T11:56:25;37.80;42.20
23156;DHT22;11746;50.876;4.246;2022-07-19T11:58:53;38.00;43.00
23156;DHT22;11746;50.876;4.246;2022-07-19T12:06:45;38.50;41.10
23156;DHT22;11746;50.876;4.246;2022-07-19T12:09:16;38.50;40.90
23156;DHT22;11746;50.876;4.246;2022-07-19T12:11:52;38.60;41.10
23156;DHT22;11746;50.876;4.246;2022-07-19T12:14:27;38.70;41.90
23156;DHT22;11746;50.876;4.246;2022-07-19T12:17:13;38.70;42.00
23156;DHT22;11746;50.876;4.246;2022-07-19T12:19:51;38.60;41.50
23156;DHT22;11746;50.876;4.246;2022-07-19T12:22:37;38.70;42.10
23156;DHT22;11746;50.876;4.246;2022-07-19T12:25:04;38.70;41.20
23156;DHT22;11746;50.876;4.246;2022-07-19T12:27:31;38.70;42.40
23156;DHT22;11746;50.876;4.246;2022-07-19T12:29:57;38.90;41.80
23156;DHT22;11746;50.876;4.246;2022-07-19T12:32:34;38.70;41.30
23156;DHT22;11746;50.876;4.246;2022-07-19T12:35:03;39.00;42.30
23156;DHT22;11746;50.876;4.246;2022-07-19T12:37:32;39.10;42.50
23156;DHT22;11746;50.876;4.246;2022-07-19T12:40:25;39.10;42.00
23156;DHT22;11746;50.876;4.246;2022-07-19T12:45:26;39.50;41.90
23156;DHT22;11746;50.876;4.246;2022-07-19T12:47:52;39.30;41.20
23156;DHT22;11746;50.876;4.246;2022-07-19T12:50:21;39.40;41.40
23156;DHT22;11746;50.876;4.246;2022-07-19T12:52:48;39.30;41.30
23156;DHT22;11746;50.876;4.246;2022-07-19T12:55:17;39.60;41.00
23156;DHT22;11746;50.876;4.246;2022-07-19T12:57:42;39.80;41.30
23156;DHT22;11746;50.876;4.246;2022-07-19T13:00:08;40.00;40.80
23156;DHT22;11746;50.876;4.246;2022-07-19T13:02:34;40.00;40.10
23156;DHT22;11746;50.876;4.246;2022-07-19T13:05:03;39.90;39.70
23156;DHT22;11746;50.876;4.246;2022-07-19T13:07:29;40.00;40.00
23156;DHT22;11746;50.876;4.246;2022-07-19T13:09:55;40.10;39.50
23156;DHT22;11746;50.876;4.246;2022-07-19T13:12:25;40.30;40.00
23156;DHT22;11746;50.876;4.246;2022-07-19T13:14:54;40.40;39.90
23156;DHT22;11746;50.876;4.246;2022-07-19T13:17:19;40.60;40.00
23156;DHT22;11746;50.876;4.246;2022-07-19T13:19:48;40.60;39.40
23156;DHT22;11746;50.876;4.246;2022-07-19T13:22:14;40.60;38.90
23156;DHT22;11746;50.876;4.246;2022-07-19T13:24:40;40.70;39.20
23156;DHT22;11746;50.876;4.246;2022-07-19T13:27:09;40.80;39.60
23156;DHT22;11746;50.876;4.246;2022-07-19T13:29:35;41.00;39.10
23156;DHT22;11746;50.876;4.246;2022-07-19T13:32:03;41.10;38.80
23156;DHT22;11746;50.876;4.246;2022-07-19T13:34:29;41.00;38.90
23156;DHT22;11746;50.876;4.246;2022-07-19T13:36:55;41.00;37.50
23156;DHT22;11746;50.876;4.246;2022-07-19T13:39:22;41.10;38.80
23156;DHT22;11746;50.876;4.246;2022-07-19T13:41:48;41.00;38.20
23156;DHT22;11746;50.876;4.246;2022-07-19T13:44:16;41.00;38.50
23156;DHT22;11746;50.876;4.246;2022-07-19T13:46:44;41.40;38.10
23156;DHT22;11746;50.876;4.246;2022-07-19T13:49:10;41.30;37.50
23156;DHT22;11746;50.876;4.246;2022-07-19T13:51:39;41.20;37.20
23156;DHT22;11746;50.876;4.246;2022-07-19T13:54:08;41.20;37.50
23156;DHT22;11746;50.876;4.246;2022-07-19T13:56:37;41.40;36.90
23156;DHT22;11746;50.876;4.246;2022-07-19T13:59:03;41.40;35.90
23156;DHT22;11746;50.876;4.246;2022-07-19T14:01:30;41.50;36.40
23156;DHT22;11746;50.876;4.246;2022-07-19T14:03:58;41.80;37.00
23156;DHT22;11746;50.876;4.246;2022-07-19T14:06:26;41.80;36.20
23156;DHT22;11746;50.876;4.246;2022-07-19T14:08:52;41.80;36.60
23156;DHT22;11746;50.876;4.246;2022-07-19T14:11:19;41.50;35.40
23156;DHT22;11746;50.876;4.246;2022-07-19T14:13:45;41.50;35.30
23156;DHT22;11746;50.876;4.246;2022-07-19T14:16:11;41.20;35.30
23156;DHT22;11746;50.876;4.246;2022-07-19T14:18:39;41.20;35.30
23156;DHT22;11746;50.876;4.246;2022-07-19T14:21:07;41.60;35.30
23156;DHT22;11746;50.876;4.246;2022-07-19T14:23:33;41.80;34.60
23156;DHT22;11746;50.876;4.246;2022-07-19T14:25:59;41.90;34.90
23156;DHT22;11746;50.876;4.246;2022-07-19T14:28:27;41.80;34.70
23156;DHT22;11746;50.876;4.246;2022-07-19T14:30:55;41.80;34.50
23156;DHT22;11746;50.876;4.246;2022-07-19T14:33:21;41.90;35.00
23156;DHT22;11746;50.876;4.246;2022-07-19T14:35:50;42.20;35.20
23156;DHT22;11746;50.876;4.246;2022-07-19T14:38:16;42.40;34.60
23156;DHT22;11746;50.876;4.246;2022-07-19T14:40:41;42.40;33.40
23156;DHT22;11746;50.876;4.246;2022-07-19T14:43:07;42.70;34.80
23156;DHT22;11746;50.876;4.246;2022-07-19T14:45:35;42.90;34.00
23156;DHT22;11746;50.876;4.246;2022-07-19T14:48:03;42.70;33.70
23156;DHT22;11746;50.876;4.246;2022-07-19T14:50:30;42.70;34.00
23156;DHT22;11746;50.876;4.246;2022-07-19T14:52:55;42.70;33.30
23156;DHT22;11746;50.876;4.246;2022-07-19T14:55:24;43.00;33.90
23156;DHT22;11746;50.876;4.246;2022-07-19T14:57:50;43.00;33.40
23156;DHT22;11746;50.876;4.246;2022-07-19T15:00:15;42.90;33.20
23156;DHT22;11746;50.876;4.246;2022-07-19T15:02:42;42.60;32.80
23156;DHT22;11746;50.876;4.246;2022-07-19T15:05:08;42.60;32.00
23156;DHT22;11746;50.876;4.246;2022-07-19T15:07:36;42.70;32.90
23156;DHT22;11746;50.876;4.246;2022-07-19T15:10:05;42.70;32.00
23156;DHT22;11746;50.876;4.246;2022-07-19T15:12:32;42.60;32.20
23156;DHT22;11746;50.876;4.246;2022-07-19T15:15:00;42.50;32.50
23156;DHT22;11746;50.876;4.246;2022-07-19T15:17:28;42.70;32.20
23156;DHT22;11746;50.876;4.246;2022-07-19T15:19:56;42.70;31.80
23156;DHT22;11746;50.876;4.246;2022-07-19T15:22:24;43.00;32.20
23156;DHT22;11746;50.876;4.246;2022-07-19T15:24:52;43.30;32.30
23156;DHT22;11746;50.876;4.246;2022-07-19T15:27:20;43.60;31.60
23156;DHT22;11746;50.876;4.246;2022-07-19T15:29:48;43.60;31.30
23156;DHT22;11746;50.876;4.246;2022-07-19T15:32:19;43.70;31.60
23156;DHT22;11746;50.876;4.246;2022-07-19T15:34:45;43.40;32.10
23156;DHT22;11746;50.876;4.246;2022-07-19T15:37:13;43.30;31.00
23156;DHT22;11746;50.876;4.246;2022-07-19T15:39:43;43.40;31.00
23156;DHT22;11746;50.876;4.246;2022-07-19T15:42:11;43.20;31.10
23156;DHT22;11746;50.876;4.246;2022-07-19T15:44:40;43.30;30.90
23156;DHT22;11746;50.876;4.246;2022-07-19T15:47:08;43.20;31.10
23156;DHT22;11746;50.876;4.246;2022-07-19T15:49:36;43.20;30.70
23156;DHT22;11746;50.876;4.246;2022-07-19T15:52:02;43.40;32.00
23156;DHT22;11746;50.876;4.246;2022-07-19T15:54:28;43.40;31.20
23156;DHT22;11746;50.876;4.246;2022-07-19T15:56:57;43.50;31.20
23156;DHT22;11746;50.876;4.246;2022-07-19T15:59:23;43.60;30.90
23156;DHT22;11746;50.876;4.246;2022-07-19T16:01:51;43.50;30.90